Gustavsfors, Sweden

6:25 PM CEST on July 23, 2014 (GMT +0200)
Jonsarna, Ransbysatter, Varmland, Sweden (IVRMLAND13) Elev 427 ft | 60.03 °N, 13.24 °E | Change Station

Current weather conditions updated 4 minutes ago

Clear
Clear
96.4 °F
Feels Like 98 °F
N
2.0
Wind Variable Wind from NW
Gusts 2.0 mph

Tomorrow is forecast to be Much Cooler than today. Afternoon thunderstorms.

Today
High -- | Low -- °F
--% Chance of Precip.
Yesterday
High -- | Low -- °F
Precip. -- in
4:23 AM 9:57 PM
Waning Crescent, 10% visible
Pressure 30.24 in
Visibility -9999.0 miles
Clouds
Heat Index 98 °F
Dew Point 63 °F
Humidity 33%
Rainfall 0.00 in
Snow Depth Not available.
UV 3.0 out of 12
Pollen Not available.
Air Quality Not available.
Flu Activity Not available.
METAR ESOK 231620Z 22006KT 180V260 CAVOK 28/10 Q1024

More Conditions Fewer Conditions

Pressure 30.24 in
Visibility -9999.0 miles
Clouds
Heat Index 98 °F
Dew Point 63 °F
Humidity 33%
Rainfall 0.00 in
Snow Depth Not available.
UV 3.0 out of 12
Pollen Not available.
Air Quality Not available.
Flu Activity Not available.
METAR ESOK 231620Z 22006KT 180V260 CAVOK 28/10 Q1024

More Conditions Fewer Conditions

10-Day Weather Forecast

Almanac

Astronomy

Jul. 23, 2014 Rise Set
Actual Time 4:23 AM CEST 9:57 PM CEST
Civil Twilight 3:13 AM CEST 11:06 PM CEST
Nautical Twilight 1:43 AM CEST 12:38 AM CEST
Astronomical Twilight Sun does not rise Sun does not rise
Moon 1:39 AM CEST 7:03 PM CEST
Length of Visible Light 19h 53m
Length of Day
17h 34m
Tomorrow will be 4m 26s shorter.
Waning Crescent, 10% of the Moon is Illuminated
Today
Waning Crescent
Jul 26
New
Aug 3
First Quarter
Aug 10
Full
Aug 17
Last Quarter

Today's Extremes

Country Highs Country Lows

Community

WunderPhotos

Upload Photos

1,736,664 photos uploaded!

Nearby

Snow Depth

Not available.

Earthquake Activity

City Distance Mag. Time & Date
No recent earthquake activity has been reported nearby.
Minimum magnitude displayed is 2.5.

Coastal Water Temperatures

Place Temperature
No Stations Reporting

Nearby Weather Stations

Station Location Temp. Heat Index Dew Point Humidity Wind Precip. Elev Updated Type
Jonsarna, Ransbysatter, Varmland, Sweden, Värmland County 96.4 °F 98 °F 63 °F 33% NW  at  2.0 mph 0.00 in / hr 427 ft 6:21 PM CEST Normal

Show More Stations Show Fewer Stations